createdAt,value
2018-02-13T00:02:11.343Z,18.40
2018-02-13T00:04:39.536Z,18.42
2018-02-13T00:07:07.047Z,17.75
2018-02-13T00:09:34.599Z,18.40
2018-02-13T00:12:02.107Z,18.77
2018-02-13T00:14:31.104Z,18.65
2018-02-13T00:16:58.710Z,18.73
2018-02-13T00:19:26.205Z,20.40
2018-02-13T00:21:53.728Z,20.17
2018-02-13T00:24:21.283Z,17.92
2018-02-13T00:26:48.794Z,17.90
2018-02-13T00:29:16.405Z,18.65
2018-02-13T00:31:43.970Z,19.15
2018-02-13T00:34:11.522Z,18.80
2018-02-13T00:36:39.046Z,17.98
2018-02-13T00:39:07.417Z,19.58
2018-02-13T00:41:36.059Z,18.85
2018-02-13T00:44:03.562Z,18.60
2018-02-13T00:46:31.159Z,18.30
2018-02-13T00:48:58.716Z,18.95
2018-02-13T00:51:26.260Z,18.20
2018-02-13T00:53:54.523Z,18.75
2018-02-13T00:56:23.540Z,18.83
2018-02-13T00:58:51.797Z,19.77
2018-02-13T01:01:20.065Z,18.25
2018-02-13T01:03:47.555Z,18.75
2018-02-13T01:06:15.055Z,19.00
2018-02-13T01:08:42.545Z,18.70
2018-02-13T01:11:10.130Z,18.80
2018-02-13T01:13:37.625Z,17.87
2018-02-13T01:16:05.144Z,18.42
2018-02-13T01:18:33.412Z,18.67
2018-02-13T01:21:02.591Z,18.17
2018-02-13T01:23:30.084Z,18.77
2018-02-13T01:25:57.584Z,18.85
2018-02-13T01:28:25.101Z,18.58
2018-02-13T01:30:52.608Z,18.90
2018-02-13T01:33:20.108Z,18.23
2018-02-13T01:35:48.385Z,19.27
2018-02-13T01:38:16.648Z,17.77
2018-02-13T01:40:44.913Z,18.23
2018-02-13T01:43:12.412Z,19.00
2018-02-13T01:45:39.925Z,18.15
2018-02-13T01:48:07.511Z,18.48
2018-02-13T01:50:35.778Z,18.58
2018-02-13T01:53:04.088Z,18.00
2018-02-13T01:55:31.606Z,17.40
2018-02-13T01:57:59.138Z,17.85
2018-02-13T02:00:26.762Z,18.17
2018-02-13T02:02:54.254Z,18.67
2018-02-13T02:05:22.104Z,18.65
2018-02-13T02:07:49.615Z,18.70
2018-02-13T02:10:17.891Z,18.85
2018-02-13T02:12:46.148Z,18.27
2018-02-13T02:15:15.180Z,18.12
2018-02-13T02:17:43.468Z,17.25
2018-02-13T02:20:11.023Z,18.33
2018-02-13T02:22:38.538Z,17.62
2018-02-13T02:25:06.043Z,19.00
2018-02-13T02:27:33.587Z,18.90
2018-02-13T02:30:01.856Z,18.87
2018-02-13T02:32:30.144Z,19.70
2018-02-13T02:34:58.431Z,18.77
2018-02-13T02:37:25.963Z,18.70
2018-02-13T02:39:54.261Z,19.23
2018-02-13T02:42:21.779Z,17.48
2018-02-13T02:44:49.384Z,19.25
2018-02-13T02:47:16.889Z,19.10
2018-02-13T02:49:44.383Z,18.75
2018-02-13T02:52:12.675Z,19.12
2018-02-13T02:54:40.183Z,18.60
2018-02-13T02:57:07.774Z,18.15
2018-02-13T02:59:36.061Z,18.80
2018-02-13T03:02:04.367Z,18.52
2018-02-13T03:04:31.867Z,18.00
2018-02-13T03:06:59.477Z,18.45
2018-02-13T03:09:26.992Z,18.45
2018-02-13T03:11:54.625Z,18.08
2018-02-13T03:14:22.128Z,17.48
2018-02-13T03:16:50.414Z,17.58
2018-02-13T03:19:18.673Z,18.12
2018-02-13T03:21:46.214Z,18.67
2018-02-13T03:24:13.724Z,17.17
2018-02-13T03:26:41.223Z,18.83
2018-02-13T03:29:09.298Z,17.98
2018-02-13T03:31:36.908Z,17.50
2018-02-13T03:34:04.424Z,17.83
2018-02-13T03:36:31.938Z,16.62
2018-02-13T03:38:59.434Z,17.23
2018-02-13T03:41:26.935Z,17.45
2018-02-13T03:43:54.491Z,17.80
2018-02-13T03:46:22.778Z,17.23
2018-02-13T03:48:50.364Z,19.05
2018-02-13T03:51:17.876Z,18.60
2018-02-13T03:53:46.142Z,17.80
2018-02-13T03:56:13.643Z,18.15
2018-02-13T03:58:41.148Z,17.60
2018-02-13T04:01:08.648Z,18.33
2018-02-13T04:03:36.142Z,18.23
2018-02-13T04:06:03.658Z,18.62
2018-02-13T04:08:31.923Z,18.48
2018-02-13T04:11:00.215Z,18.23
2018-02-13T04:13:28.489Z,18.95
2018-02-13T04:15:56.773Z,18.87
2018-02-13T04:18:24.271Z,19.12
2018-02-13T04:20:51.761Z,19.42
2018-02-13T04:23:19.260Z,18.55
2018-02-13T04:25:46.799Z,19.85
2018-02-13T04:28:15.075Z,18.25
2018-02-13T04:30:43.326Z,18.98
2018-02-13T04:33:10.921Z,18.77
2018-02-13T04:35:38.406Z,17.87
2018-02-13T04:38:05.926Z,18.40
2018-02-13T04:40:34.197Z,19.00
2018-02-13T04:43:02.503Z,18.40
2018-02-13T04:45:29.990Z,17.17
2018-02-13T04:47:59.550Z,17.75
2018-02-13T04:50:27.830Z,17.60
2018-02-13T04:52:55.336Z,18.05
2018-02-13T04:55:22.917Z,17.95
2018-02-13T04:57:50.522Z,18.42
2018-02-13T05:00:18.047Z,17.58
2018-02-13T05:02:45.531Z,18.23
2018-02-13T05:05:13.090Z,18.35
2018-02-13T05:07:40.605Z,18.20
2018-02-13T05:10:08.909Z,17.20
2018-02-13T05:12:37.214Z,17.48
2018-02-13T05:15:04.712Z,17.52
2018-02-13T05:17:32.218Z,17.92
2018-02-13T05:19:59.861Z,19.10
2018-02-13T05:22:28.140Z,16.85
2018-02-13T05:24:55.730Z,26.02
2018-02-13T05:27:23.279Z,21.48
2018-02-13T05:29:50.863Z,17.98
2018-02-13T05:32:18.461Z,17.55
2018-02-13T05:34:46.808Z,17.17
2018-02-13T05:37:14.324Z,18.95
2018-02-13T05:39:41.853Z,17.67
2018-02-13T05:42:09.445Z,17.35
2018-02-13T05:44:37.701Z,18.73
2018-02-13T05:47:06.011Z,17.05
2018-02-13T05:49:33.519Z,18.50
2018-02-13T05:52:01.011Z,18.00
2018-02-13T05:54:29.291Z,17.55
2018-02-13T05:56:57.563Z,21.30
2018-02-13T05:59:25.854Z,19.10
2018-02-13T06:01:53.355Z,18.92
2018-02-13T06:04:20.868Z,18.98
2018-02-13T06:06:48.473Z,17.45
2018-02-13T06:09:15.992Z,15.80
2018-02-13T06:11:43.509Z,16.15
2018-02-13T06:14:11.020Z,16.25
2018-02-13T06:16:38.581Z,16.87
2018-02-13T06:19:06.116Z,15.93
2018-02-13T06:21:34.392Z,15.98
2018-02-13T06:24:02.888Z,16.75
2018-02-13T06:26:30.489Z,13.77
2018-02-13T06:28:58.121Z,14.57
2018-02-13T06:31:25.669Z,14.32
2018-02-13T06:33:53.211Z,15.02
2018-02-13T06:36:21.516Z,15.10
2018-02-13T06:38:49.064Z,13.93
2018-02-13T06:41:16.846Z,14.45
2018-02-13T06:43:44.511Z,15.63
2018-02-13T06:46:12.089Z,16.45
2018-02-13T06:48:39.617Z,18.08
2018-02-13T06:51:07.293Z,16.55
2018-02-13T06:53:34.827Z,16.95
2018-02-13T06:56:03.099Z,15.77
2018-02-13T06:58:30.675Z,16.37
2018-02-13T07:00:58.224Z,16.80
2018-02-13T07:03:25.757Z,16.10
2018-02-13T07:05:53.243Z,16.17
2018-02-13T07:08:20.818Z,15.68
2018-02-13T07:10:48.332Z,16.35
2018-02-13T07:13:16.641Z,16.98
2018-02-13T07:15:44.187Z,24.58
2018-02-13T07:18:11.728Z,17.60
2018-02-13T07:20:39.269Z,16.37
2018-02-13T07:23:06.979Z,15.65
2018-02-13T07:25:34.555Z,16.62
2018-02-13T07:28:02.115Z,16.35
2018-02-13T07:30:29.898Z,17.55
2018-02-13T07:32:57.410Z,17.15
2018-02-13T07:35:25.224Z,16.12
2018-02-13T07:37:52.724Z,16.33
2018-02-13T07:40:21.009Z,16.98
2018-02-13T07:42:49.341Z,15.98
2018-02-13T07:45:16.849Z,15.82
2018-02-13T07:47:45.199Z,15.80
2018-02-13T07:50:13.630Z,15.45
2018-02-13T07:52:41.186Z,16.20
2018-02-13T07:55:08.827Z,15.40
2018-02-13T07:57:37.074Z,16.87
2018-02-13T08:00:04.569Z,16.62
2018-02-13T08:02:32.849Z,15.95
2018-02-13T08:05:01.191Z,17.15
2018-02-13T08:07:28.774Z,16.12
2018-02-13T08:09:57.030Z,17.58
2018-02-13T08:12:25.344Z,16.67
2018-02-13T08:14:53.606Z,16.67
2018-02-13T08:17:21.937Z,17.15
2018-02-13T08:19:49.450Z,16.40
2018-02-13T08:22:17.853Z,16.40
2018-02-13T08:24:45.408Z,16.48
2018-02-13T08:27:12.946Z,16.42
2018-02-13T08:29:41.190Z,16.37
2018-02-13T08:32:08.703Z,15.73
2018-02-13T08:34:36.262Z,15.77
2018-02-13T08:37:03.787Z,15.27
2018-02-13T08:39:32.061Z,15.90
2018-02-13T08:42:00.315Z,15.65
2018-02-13T08:44:28.221Z,15.48
2018-02-13T08:46:56.496Z,15.45
2018-02-13T08:49:24.807Z,15.95
2018-02-13T08:51:52.324Z,14.80
2018-02-13T08:54:20.598Z,15.52
2018-02-13T08:56:48.873Z,15.45
2018-02-13T08:59:17.156Z,21.20
2018-02-13T09:01:45.562Z,16.73
2018-02-13T09:04:13.126Z,15.85
2018-02-13T09:06:40.653Z,16.30
2018-02-13T09:09:08.982Z,16.15
2018-02-13T09:11:36.501Z,16.73
2018-02-13T09:14:04.006Z,17.42
2018-02-13T09:16:31.525Z,16.03
2018-02-13T09:18:59.026Z,16.95
2018-02-13T09:21:26.643Z,16.25
2018-02-13T09:23:54.155Z,15.77
2018-02-13T09:26:21.723Z,15.38
2018-02-13T09:28:49.332Z,16.02
2018-02-13T09:31:16.837Z,15.80
2018-02-13T09:33:44.339Z,16.17
2018-02-13T09:36:11.852Z,15.53
2018-02-13T09:38:39.360Z,15.87
2018-02-13T09:41:06.900Z,16.60
2018-02-13T09:43:35.163Z,15.13
2018-02-13T09:46:02.720Z,16.17
2018-02-13T09:48:30.248Z,15.10
2018-02-13T09:50:57.802Z,15.20
2018-02-13T09:53:25.328Z,14.37
2018-02-13T09:55:53.836Z,15.93
2018-02-13T09:58:22.278Z,15.43
2018-02-13T10:00:50.575Z,15.17
2018-02-13T10:03:18.105Z,15.37
2018-02-13T10:05:46.391Z,15.00
2018-02-13T10:08:14.787Z,15.80
2018-02-13T10:10:42.283Z,14.97
2018-02-13T10:13:09.808Z,15.07
2018-02-13T10:15:37.308Z,15.07
2018-02-13T10:18:04.853Z,15.57
2018-02-13T10:20:32.356Z,14.80
2018-02-13T10:23:00.615Z,14.20
2018-02-13T10:25:28.189Z,14.67
2018-02-13T10:27:56.454Z,14.57
2018-02-13T10:30:24.800Z,14.77
2018-02-13T10:32:52.406Z,14.93
2018-02-13T10:35:20.019Z,14.20
2018-02-13T10:37:47.666Z,15.17
2018-02-13T10:40:15.256Z,14.33
2018-02-13T10:42:42.936Z,13.23
2018-02-13T10:45:10.582Z,14.37
2018-02-13T10:47:38.294Z,14.63
2018-02-13T10:50:05.975Z,14.00
2018-02-13T10:52:33.686Z,14.27
2018-02-13T10:55:02.066Z,14.40
2018-02-13T10:57:29.865Z,14.10
2018-02-13T10:59:58.207Z,13.77
2018-02-13T11:02:25.902Z,13.63
2018-02-13T11:04:53.589Z,14.83
2018-02-13T11:07:21.155Z,13.33
2018-02-13T11:09:48.893Z,14.07
2018-02-13T11:12:16.493Z,13.77
2018-02-13T11:14:44.150Z,13.87
2018-02-13T11:17:11.755Z,13.43
2018-02-13T11:19:39.336Z,14.07
2018-02-13T11:22:07.046Z,14.37
2018-02-13T11:24:34.619Z,13.47
2018-02-13T11:27:02.357Z,14.07
2018-02-13T11:29:29.959Z,13.83
2018-02-13T11:31:57.515Z,13.77
2018-02-13T11:34:25.169Z,13.83
2018-02-13T11:36:52.733Z,13.60
2018-02-13T11:39:20.324Z,14.80
2018-02-13T11:41:47.889Z,14.23
2018-02-13T11:44:15.582Z,14.50
2018-02-13T11:46:43.098Z,15.30
2018-02-13T11:49:10.614Z,14.23
2018-02-13T11:51:38.284Z,13.97
2018-02-13T11:54:06.001Z,14.17
2018-02-13T11:56:34.262Z,14.27
2018-02-13T11:59:01.829Z,14.23
2018-02-13T12:01:30.090Z,14.37
2018-02-13T12:03:58.398Z,14.57
2018-02-13T12:06:25.905Z,14.37
2018-02-13T12:08:53.891Z,14.00
2018-02-13T12:11:22.164Z,13.97
2018-02-13T12:13:49.734Z,14.87
2018-02-13T12:16:18.010Z,13.97
2018-02-13T12:18:46.311Z,12.77
2018-02-13T12:21:13.801Z,13.27
2018-02-13T12:23:41.303Z,14.83
2018-02-13T12:26:09.679Z,14.37
2018-02-13T12:28:37.943Z,14.40
2018-02-13T12:31:06.302Z,13.87
2018-02-13T12:33:33.926Z,13.10
2018-02-13T12:36:01.448Z,13.37
2018-02-13T12:38:30.471Z,12.73
2018-02-13T12:40:58.763Z,11.93
2018-02-13T12:43:26.262Z,10.70
2018-02-13T12:45:53.891Z,10.33
2018-02-13T12:48:21.416Z,11.00
2018-02-13T12:50:49.842Z,12.23
2018-02-13T12:53:17.720Z,11.57
2018-02-13T12:55:46.175Z,13.20
2018-02-13T12:58:14.730Z,11.77
2018-02-13T13:00:42.978Z,13.43
2018-02-13T13:03:10.504Z,12.30
2018-02-13T13:05:37.994Z,10.53
2018-02-13T13:08:05.482Z,11.60
2018-02-13T13:10:33.003Z,11.23
2018-02-13T13:13:00.509Z,10.80
2018-02-13T13:15:28.046Z,8.60
2018-02-13T13:17:56.357Z,9.07
2018-02-13T13:20:23.955Z,9.70
2018-02-13T13:22:51.452Z,9.93
2018-02-13T13:25:19.856Z,10.40
2018-02-13T13:27:47.493Z,10.13
2018-02-13T13:30:15.783Z,10.13
2018-02-13T13:32:43.282Z,10.17
2018-02-13T13:35:10.804Z,10.07
2018-02-13T13:37:38.471Z,10.27
2018-02-13T13:40:05.971Z,10.93
2018-02-13T13:42:33.586Z,10.13
2018-02-13T13:45:01.090Z,10.70
2018-02-13T13:47:29.013Z,10.77
2018-02-13T13:49:56.571Z,9.23
2018-02-13T13:52:24.090Z,10.47
2018-02-13T13:54:51.653Z,10.67
2018-02-13T13:57:19.239Z,9.73
2018-02-13T13:59:47.547Z,9.77
2018-02-13T14:02:15.075Z,10.40
2018-02-13T14:04:43.459Z,10.17
2018-02-13T14:07:10.979Z,10.87
2018-02-13T14:09:38.466Z,9.57
2018-02-13T14:12:06.755Z,8.57
2018-02-13T14:14:34.345Z,8.20
2018-02-13T14:17:01.852Z,8.50
2018-02-13T14:19:30.117Z,8.70
2018-02-13T14:21:57.626Z,9.80
2018-02-13T14:24:26.153Z,9.17
2018-02-13T14:26:53.738Z,9.50
2018-02-13T14:29:22.155Z,9.43
2018-02-13T14:31:49.653Z,10.07
2018-02-13T14:34:17.232Z,10.07
2018-02-13T14:36:45.490Z,9.83
2018-02-13T14:39:13.079Z,10.60
2018-02-13T14:41:40.665Z,10.50
2018-02-13T14:44:08.223Z,9.60
2018-02-13T14:46:36.529Z,8.20
2018-02-13T14:49:04.042Z,8.07
2018-02-13T14:51:31.632Z,7.10
2018-02-13T14:53:59.109Z,6.90
2018-02-13T14:56:26.620Z,6.87
2018-02-13T14:58:54.095Z,6.50
2018-02-13T15:01:21.635Z,6.90
2018-02-13T15:03:49.144Z,5.97
2018-02-13T15:06:16.626Z,7.30
2018-02-13T15:08:44.908Z,7.50
2018-02-13T15:11:13.998Z,7.33
2018-02-13T15:13:41.503Z,6.80
2018-02-13T15:16:09.829Z,6.70
2018-02-13T15:18:38.294Z,6.70
2018-02-13T15:21:05.907Z,6.90
2018-02-13T15:23:33.427Z,7.20
2018-02-13T15:26:01.132Z,6.53
2018-02-13T15:28:28.669Z,7.03
2018-02-13T15:30:56.200Z,7.03
2018-02-13T15:33:23.696Z,7.00
2018-02-13T15:35:51.312Z,6.87
2018-02-13T15:38:19.809Z,7.20
2018-02-13T15:40:47.303Z,7.33
2018-02-13T15:43:15.989Z,7.30
2018-02-13T15:45:43.508Z,8.23
2018-02-13T15:48:11.068Z,8.87
2018-02-13T15:50:39.148Z,7.10
2018-02-13T15:53:06.755Z,6.80
2018-02-13T15:55:34.252Z,6.50
2018-02-13T15:58:02.056Z,6.80
2018-02-13T16:00:30.518Z,7.50
2018-02-13T16:02:58.977Z,7.17
2018-02-13T16:05:26.527Z,7.20
2018-02-13T16:07:54.017Z,7.63
2018-02-13T16:10:22.291Z,8.03
2018-02-13T16:12:50.561Z,8.00
2018-02-13T16:15:18.842Z,7.30
2018-02-13T16:17:46.371Z,8.27
2018-02-13T16:20:13.896Z,8.00
2018-02-13T16:22:41.446Z,8.40
2018-02-13T16:25:08.953Z,8.00
2018-02-13T16:27:36.443Z,8.63
2018-02-13T16:30:04.716Z,8.33
2018-02-13T16:32:33.064Z,8.73
2018-02-13T16:35:00.555Z,8.10
2018-02-13T16:37:28.841Z,10.30
2018-02-13T16:39:57.107Z,30.97
2018-02-13T16:42:25.374Z,53.77
2018-02-13T16:44:52.923Z,36.17
2018-02-13T16:47:20.508Z,33.30
2018-02-13T16:49:48.817Z,36.40
2018-02-13T16:52:16.312Z,51.43
2018-02-13T16:54:43.920Z,53.97
2018-02-13T16:57:11.419Z,53.05
2018-02-13T16:59:38.935Z,47.60
2018-02-13T17:02:06.448Z,48.83
2018-02-13T17:04:34.105Z,48.23
2018-02-13T17:07:01.628Z,49.80
2018-02-13T17:09:29.137Z,82.87
2018-02-13T17:11:56.667Z,50.17
2018-02-13T17:14:24.204Z,42.73
2018-02-13T17:16:51.725Z,41.07
2018-02-13T17:19:19.986Z,39.60
2018-02-13T17:21:49.030Z,36.63
2018-02-13T17:24:16.588Z,36.35
2018-02-13T17:26:44.144Z,36.28
2018-02-13T17:29:11.653Z,39.92
2018-02-13T17:31:39.176Z,41.13
2018-02-13T17:34:06.709Z,39.30
2018-02-13T17:36:35.005Z,36.63
2018-02-13T17:39:02.519Z,37.50
2018-02-13T17:41:31.529Z,40.95
2018-02-13T17:43:59.097Z,37.45
2018-02-13T17:46:27.398Z,41.17
2018-02-13T17:48:54.884Z,37.22
2018-02-13T17:51:22.515Z,34.47
2018-02-13T17:53:50.020Z,36.45
2018-02-13T17:56:17.548Z,37.22
2018-02-13T17:58:45.056Z,44.85
2018-02-13T18:01:13.313Z,52.05
2018-02-13T18:03:40.837Z,56.65
2018-02-13T18:06:08.342Z,51.55
2018-02-13T18:08:36.638Z,40.85
2018-02-13T18:11:04.895Z,23.87
2018-02-13T18:13:32.519Z,24.30
2018-02-13T18:16:00.040Z,33.97
2018-02-13T18:18:27.534Z,25.58
2018-02-13T18:20:55.064Z,22.92
2018-02-13T18:23:22.670Z,23.35
2018-02-13T18:25:50.179Z,24.20
2018-02-13T18:28:17.709Z,22.62
2018-02-13T18:30:45.216Z,21.37
2018-02-13T18:33:12.706Z,20.20
2018-02-13T18:35:40.219Z,18.52
2018-02-13T18:38:07.736Z,18.95
2018-02-13T18:40:35.243Z,17.85
2018-02-13T18:43:02.760Z,20.27
2018-02-13T18:45:30.276Z,24.42
2018-02-13T18:47:58.635Z,21.37
2018-02-13T18:50:26.127Z,19.58
2018-02-13T18:55:21.918Z,18.58
2018-02-13T18:57:50.199Z,16.58
2018-02-13T19:00:17.756Z,15.25
2018-02-13T19:02:45.258Z,15.68
2018-02-13T19:05:12.776Z,14.15
2018-02-13T19:07:41.050Z,13.70
2018-02-13T19:10:08.570Z,14.18
2018-02-13T19:12:36.059Z,13.85
2018-02-13T19:15:04.369Z,14.60
2018-02-13T19:17:31.909Z,14.02
2018-02-13T19:19:59.430Z,18.40
2018-02-13T19:22:26.930Z,18.62
2018-02-13T19:24:54.459Z,16.33
2018-02-13T19:27:21.979Z,15.95
2018-02-13T19:29:49.474Z,15.23
2018-02-13T19:32:16.980Z,16.45
2018-02-13T19:34:44.485Z,16.70
2018-02-13T19:37:11.975Z,16.17
2018-02-13T19:39:39.478Z,16.58
2018-02-13T19:42:06.980Z,17.20
2018-02-13T19:44:35.267Z,17.08
2018-02-13T19:47:02.784Z,16.60
2018-02-13T19:49:30.303Z,15.77
2018-02-13T19:51:57.867Z,16.52
2018-02-13T19:54:26.566Z,17.83
2018-02-13T19:56:54.104Z,19.05
2018-02-13T19:59:21.614Z,18.90
2018-02-13T20:01:49.316Z,16.73
2018-02-13T20:04:17.599Z,17.23
2018-02-13T20:06:45.096Z,18.00
2018-02-13T20:09:13.819Z,18.27
2018-02-13T20:11:41.673Z,19.55
2018-02-13T20:14:09.246Z,18.95
2018-02-13T20:16:36.911Z,19.73
2018-02-13T20:19:04.484Z,20.25
2018-02-13T20:21:32.006Z,20.08
2018-02-13T20:23:59.529Z,19.58
2018-02-13T20:26:27.026Z,20.52
2018-02-13T20:28:54.552Z,21.33
2018-02-13T20:31:22.320Z,21.15
2018-02-13T20:33:49.886Z,18.65
2018-02-13T20:36:17.448Z,18.83
2018-02-13T20:38:45.153Z,20.17
2018-02-13T20:41:13.439Z,20.42
2018-02-13T20:43:42.347Z,20.62
2018-02-13T20:46:09.901Z,21.20
2018-02-13T20:48:37.420Z,20.40
2018-02-13T20:51:05.129Z,18.85
2018-02-13T20:53:34.052Z,19.92
2018-02-13T20:56:01.563Z,18.62
2018-02-13T20:58:30.824Z,18.83
2018-02-13T21:00:58.359Z,19.50
2018-02-13T21:03:25.872Z,18.92
2018-02-13T21:06:00.474Z,20.10
2018-02-13T21:08:29.296Z,21.55
2018-02-13T21:10:58.274Z,23.25
2018-02-13T21:13:26.653Z,23.98
2018-02-13T21:15:55.110Z,21.23
2018-02-13T21:18:23.779Z,21.83
2018-02-13T21:20:51.435Z,19.05
2018-02-13T21:23:19.683Z,18.83
2018-02-13T21:25:49.107Z,19.55
2018-02-13T21:28:16.960Z,18.48
2018-02-13T21:30:44.624Z,19.15
2018-02-13T21:33:12.226Z,18.70
2018-02-13T21:35:41.606Z,19.15
2018-02-13T21:38:09.652Z,18.60
2018-02-13T21:40:37.171Z,17.75
2018-02-13T21:43:04.736Z,18.10
2018-02-13T21:45:35.159Z,18.05
2018-02-13T21:48:03.583Z,17.95
2018-02-13T21:50:31.694Z,16.92
2018-02-13T21:52:59.558Z,18.12
2018-02-13T21:55:27.121Z,19.15
2018-02-13T21:57:54.623Z,19.70
2018-02-13T22:00:25.961Z,19.98
2018-02-13T22:02:53.671Z,19.20
2018-02-13T22:05:21.361Z,19.37
2018-02-13T22:07:53.279Z,19.37
2018-02-13T22:10:20.823Z,19.23
2018-02-13T22:12:49.389Z,19.27
2018-02-13T22:15:18.337Z,20.70
2018-02-13T22:17:45.888Z,21.25
2018-02-13T22:20:13.543Z,19.45
2018-02-13T22:22:41.046Z,20.15
2018-02-13T22:25:08.856Z,20.20
2018-02-13T22:27:36.350Z,22.00
2018-02-13T22:30:04.561Z,21.60
2018-02-13T22:32:32.837Z,23.80
2018-02-13T22:35:00.406Z,22.90
2018-02-13T22:37:27.963Z,23.12
2018-02-13T22:39:56.232Z,23.67
2018-02-13T22:42:24.516Z,21.45
2018-02-13T22:44:52.017Z,23.23
2018-02-13T22:47:19.511Z,21.90
2018-02-13T22:49:47.045Z,22.67
2018-02-13T22:52:15.567Z,22.40
2018-02-13T22:54:43.835Z,23.08
2018-02-13T22:57:11.346Z,23.17
2018-02-13T22:59:38.893Z,23.52
2018-02-13T23:02:06.477Z,24.85
2018-02-13T23:04:34.122Z,24.90
2018-02-13T23:07:01.647Z,27.08
2018-02-13T23:09:29.918Z,27.70
2018-02-13T23:11:58.235Z,27.77
2018-02-13T23:14:25.761Z,27.60
2018-02-13T23:16:54.032Z,26.83
2018-02-13T23:19:22.289Z,27.25
2018-02-13T23:21:49.796Z,28.83
2018-02-13T23:24:17.289Z,28.73
2018-02-13T23:26:44.784Z,27.95
2018-02-13T23:29:13.052Z,28.05
2018-02-13T23:31:41.402Z,27.23
2018-02-13T23:34:08.888Z,27.33
2018-02-13T23:36:36.411Z,26.52
2018-02-13T23:39:03.945Z,26.87
2018-02-13T23:41:31.484Z,25.17
2018-02-13T23:43:58.984Z,25.33
2018-02-13T23:46:26.473Z,23.83
2018-02-13T23:48:54.102Z,23.67
2018-02-13T23:51:21.596Z,23.12
2018-02-13T23:53:49.179Z,23.70
2018-02-13T23:56:16.684Z,23.60
2018-02-13T23:58:44.194Z,23.55
